Time;durP1;ratioP1;P1;durP2;ratioP2;P2;SDS_P1;SDS_P2;PMS_P1;PMS_P2;Temp;Humidity;BMP_temperature;BMP_pressure;BME280_temperature;BME280_humidity;BME280_pressure;Samples;Min_cycle;Max_cycle;Signal;HPM_P1;HPM_P2
2021/05/12 00:00:23;;;;;;;5.07;2.03;;;18.50;71.20;;;;;;4975341;28;20473;-71
2021/05/12 00:02:49;;;;;;;4.95;1.73;;;18.50;70.70;;;;;;4975257;28;20026;-71
2021/05/12 00:05:17;;;;;;;8.48;2.22;;;18.40;69.80;;;;;;4975203;28;20027;-71
2021/05/12 00:07:43;;;;;;;4.82;1.80;;;18.50;69.80;;;;;;4975607;28;20019;-71
2021/05/12 00:10:11;;;;;;;3.97;1.30;;;18.30;68.80;;;;;;4975380;28;20034;-70
2021/05/12 00:12:39;;;;;;;6.03;1.40;;;18.10;68.70;;;;;;4974974;28;20083;-71
2021/05/12 00:15:08;;;;;;;5.68;1.42;;;18.00;68.00;;;;;;4975135;28;20085;-70
2021/05/12 00:17:34;;;;;;;3.92;1.33;;;18.00;67.90;;;;;;4974404;28;20026;-70
2021/05/12 00:20:02;;;;;;;3.78;1.10;;;17.90;67.50;;;;;;4975357;28;20038;-72
2021/05/12 00:24:56;;;;;;;5.53;1.15;;;18.00;67.10;;;;;;4975201;28;20031;-70
2021/05/12 00:27:22;;;;;;;5.20;1.27;;;18.00;66.60;;;;;;4974999;28;20102;-70
2021/05/12 00:29:48;;;;;;;7.20;1.58;;;17.90;66.40;;;;;;4974779;28;20103;-69
2021/05/12 00:32:14;;;;;;;4.47;1.30;;;18.00;66.70;;;;;;4974931;28;20065;-71
2021/05/12 00:34:40;;;;;;;4.25;1.40;;;17.90;65.50;;;;;;4974883;28;20038;-70
2021/05/12 00:37:05;;;;;;;3.10;1.20;;;18.00;65.20;;;;;;4974788;28;20031;-70
2021/05/12 00:39:31;;;;;;;5.30;1.55;;;17.90;64.70;;;;;;4974746;28;20053;-71
2021/05/12 00:41:59;;;;;;;4.07;1.08;;;17.90;65.00;;;;;;4975110;28;20161;-71
2021/05/12 00:44:26;;;;;;;4.43;1.20;;;17.80;65.60;;;;;;4974513;28;20066;-71
2021/05/12 00:46:52;;;;;;;3.05;1.20;;;17.70;65.00;;;;;;4974634;28;20042;-70
2021/05/12 00:49:19;;;;;;;2.60;1.08;;;17.80;64.70;;;;;;4974564;28;20528;-71
2021/05/12 00:51:46;;;;;;;3.08;0.93;;;17.90;64.10;;;;;;4974415;28;20035;-70
2021/05/12 00:54:13;;;;;;;4.00;1.20;;;17.90;63.10;;;;;;4974409;28;20034;-71
2021/05/12 00:56:40;;;;;;;2.95;0.93;;;17.90;62.70;;;;;;4957499;28;20035;-71
2021/05/12 00:59:07;;;;;;;5.38;1.10;;;17.90;62.20;;;;;;4974303;28;20062;-71
2021/05/12 01:01:34;;;;;;;4.28;1.10;;;17.80;62.40;;;;;;4974289;28;20023;-72
2021/05/12 01:03:59;;;;;;;3.28;0.82;;;17.70;62.50;;;;;;4974526;28;20045;-71
2021/05/12 01:06:32;;;;;;;3.05;0.80;;;17.50;62.40;;;;;;4974539;28;20019;-71
2021/05/12 01:08:58;;;;;;;2.27;1.00;;;17.60;62.50;;;;;;4974566;28;20035;-70
2021/05/12 01:11:24;;;;;;;5.90;1.00;;;17.70;62.00;;;;;;4974346;28;20127;-71
2021/05/12 01:13:50;;;;;;;3.78;1.10;;;17.80;61.80;;;;;;4974737;28;20045;-70
2021/05/12 01:16:17;;;;;;;3.30;1.02;;;17.80;62.00;;;;;;4976113;28;20031;-70
2021/05/12 01:18:43;;;;;;;7.10;1.27;;;17.80;61.80;;;;;;4975999;28;20022;-71
2021/05/12 01:21:10;;;;;;;6.07;1.02;;;17.80;62.10;;;;;;4976259;28;20531;-71
2021/05/12 01:23:43;;;;;;;5.80;1.10;;;17.80;62.40;;;;;;4976337;28;20038;-70
2021/05/12 01:26:14;;;;;;;4.70;1.00;;;17.90;62.40;;;;;;4974220;28;20023;-70
2021/05/12 01:28:43;;;;;;;4.40;1.10;;;17.80;62.60;;;;;;4976476;28;20106;-70
2021/05/12 01:31:19;;;;;;;3.42;1.05;;;17.80;62.70;;;;;;4977823;28;20469;-71
2021/05/12 01:33:46;;;;;;;4.13;1.20;;;17.70;63.00;;;;;;4978023;28;20030;-71
2021/05/12 01:36:12;;;;;;;6.63;1.30;;;17.60;63.10;;;;;;4978216;28;20027;-71
2021/05/12 01:38:41;;;;;;;3.60;1.48;;;17.60;62.70;;;;;;4978114;28;20030;-70
2021/05/12 01:41:07;;;;;;;4.80;1.00;;;17.60;62.80;;;;;;4978161;28;20062;-70
2021/05/12 01:43:35;;;;;;;3.30;1.42;;;17.70;62.60;;;;;;4978239;28;20470;-71
2021/05/12 01:46:01;;;;;;;4.75;1.67;;;17.80;62.30;;;;;;4977972;28;20037;-69
2021/05/12 01:48:28;;;;;;;4.28;1.33;;;17.80;62.10;;;;;;4977900;28;20562;-70
2021/05/12 01:50:54;;;;;;;2.53;1.00;;;17.80;62.20;;;;;;4977627;28;20050;-70
2021/05/12 01:53:20;;;;;;;5.65;1.40;;;17.80;62.10;;;;;;4977781;28;20488;-70
2021/05/12 01:55:49;;;;;;;2.20;0.98;;;17.90;62.10;;;;;;4978190;28;20027;-70
2021/05/12 01:58:16;;;;;;;4.45;1.10;;;17.90;62.00;;;;;;4977804;28;20062;-71
2021/05/12 02:00:45;;;;;;;3.38;1.05;;;17.90;61.80;;;;;;4977567;28;20033;-70
2021/05/12 02:03:11;;;;;;;5.57;1.55;;;17.90;62.30;;;;;;4977954;28;20015;-71
2021/05/12 02:05:38;;;;;;;6.80;1.70;;;18.00;63.00;;;;;;4977499;28;20061;-71
2021/05/12 02:08:10;;;;;;;2.78;1.10;;;18.00;62.90;;;;;;4977603;28;20405;-70
2021/05/12 02:10:37;;;;;;;3.30;1.02;;;17.90;62.80;;;;;;4977360;28;20050;-71
2021/05/12 02:13:03;;;;;;;4.95;1.77;;;17.80;63.50;;;;;;4959989;28;20506;-71
2021/05/12 02:15:29;;;;;;;6.55;1.52;;;17.80;63.10;;;;;;4977514;28;20045;-71
2021/05/12 02:17:55;;;;;;;7.85;2.33;;;17.80;63.50;;;;;;4977432;28;20019;-70
2021/05/12 02:20:29;;;;;;;4.93;1.50;;;17.80;63.70;;;;;;4977405;28;20058;-71
2021/05/12 02:22:57;;;;;;;6.55;1.52;;;17.70;64.70;;;;;;4977048;28;20047;-70
2021/05/12 02:25:23;;;;;;;9.05;2.00;;;17.60;64.70;;;;;;4977381;28;20114;-70
2021/05/12 02:27:49;;;;;;;7.28;1.88;;;17.40;65.10;;;;;;4977097;28;20546;-69
2021/05/12 02:30:15;;;;;;;3.85;1.75;;;17.40;65.90;;;;;;4977365;28;20035;-70
2021/05/12 02:32:42;;;;;;;4.13;1.48;;;17.40;66.20;;;;;;4976973;28;20019;-70
2021/05/12 02:35:10;;;;;;;5.88;1.40;;;17.20;66.20;;;;;;4977161;28;20042;-70
2021/05/12 02:37:36;;;;;;;4.40;1.60;;;17.20;66.50;;;;;;4977062;28;20361;-70
2021/05/12 02:40:04;;;;;;;4.97;1.23;;;17.30;66.30;;;;;;4976089;28;20035;-70
2021/05/12 02:42:29;;;;;;;5.28;1.60;;;17.10;66.70;;;;;;4977127;28;20047;-70
2021/05/12 02:44:55;;;;;;;6.78;1.50;;;17.10;67.10;;;;;;4959531;28;20400;-70
2021/05/12 02:47:21;;;;;;;3.38;1.38;;;17.30;67.30;;;;;;4976856;28;20015;-71
2021/05/12 02:49:47;;;;;;;5.45;1.33;;;17.30;67.40;;;;;;4976920;28;20388;-70
2021/05/12 02:52:12;;;;;;;8.27;1.90;;;17.30;67.70;;;;;;4976716;28;20027;-71
2021/05/12 02:54:38;;;;;;;6.78;1.77;;;17.20;67.70;;;;;;4976536;28;20452;-71
2021/05/12 02:57:05;;;;;;;5.05;1.52;;;17.20;67.90;;;;;;4976782;28;20015;-71
2021/05/12 02:59:30;;;;;;;7.07;2.60;;;17.10;67.70;;;;;;4976879;28;20485;-70
2021/05/12 03:01:56;;;;;;;3.97;1.40;;;17.10;68.20;;;;;;4976407;28;20205;-71
2021/05/12 03:04:22;;;;;;;5.82;1.67;;;17.20;68.40;;;;;;4976499;28;20436;-70
2021/05/12 03:06:48;;;;;;;6.13;1.60;;;17.20;68.20;;;;;;4976508;28;20055;-71
2021/05/12 03:09:14;;;;;;;4.07;1.70;;;17.20;68.20;;;;;;4976585;28;20089;-71
2021/05/12 03:11:40;;;;;;;2.60;1.30;;;17.30;68.40;;;;;;4976139;28;20027;-70
2021/05/12 03:14:08;;;;;;;5.72;1.85;;;17.30;68.40;;;;;;4976252;28;20035;-70
2021/05/12 03:16:34;;;;;;;5.32;1.70;;;17.40;68.20;;;;;;4976166;28;20027;-70
2021/05/12 03:19:00;;;;;;;8.75;1.50;;;17.40;68.40;;;;;;4976310;28;20062;-70
2021/05/12 03:21:27;;;;;;;4.50;1.75;;;17.30;68.50;;;;;;4976138;28;20078;-70
2021/05/12 03:23:52;;;;;;;5.07;2.05;;;17.10;68.60;;;;;;4976190;28;20034;-70
2021/05/12 03:26:19;;;;;;;5.55;1.70;;;17.10;68.90;;;;;;4976149;28;20054;-70
2021/05/12 03:28:46;;;;;;;5.95;1.90;;;17.00;68.90;;;;;;4975937;28;20034;-70
2021/05/12 03:31:12;;;;;;;9.13;1.73;;;17.00;69.50;;;;;;4975840;28;20591;-70
2021/05/12 03:33:40;;;;;;;5.40;1.75;;;16.90;69.80;;;;;;4975813;28;20468;-70
2021/05/12 03:36:06;;;;;;;5.00;1.73;;;16.90;69.90;;;;;;4975704;28;20027;-70
2021/05/12 03:38:33;;;;;;;7.78;1.95;;;17.00;70.00;;;;;;4975804;28;20031;-70
2021/05/12 03:40:58;;;;;;;4.90;2.00;;;17.00;70.00;;;;;;4975656;28;20059;-70
2021/05/12 03:43:24;;;;;;;6.38;2.00;;;17.00;70.10;;;;;;4958275;28;20027;-71
2021/05/12 03:45:50;;;;;;;5.68;1.83;;;17.00;69.90;;;;;;4975682;28;20033;-70
2021/05/12 03:48:16;;;;;;;9.02;2.00;;;16.90;70.10;;;;;;4975658;28;20109;-71
2021/05/12 03:50:42;;;;;;;6.95;2.03;;;17.00;70.30;;;;;;4975583;28;20114;-70
2021/05/12 03:53:08;;;;;;;5.95;1.73;;;17.00;70.40;;;;;;4975411;28;20052;-71
2021/05/12 03:55:34;;;;;;;6.72;2.13;;;17.00;71.10;;;;;;4975407;28;20023;-70
2021/05/12 03:58:00;;;;;;;5.15;1.80;;;17.00;70.40;;;;;;4975470;28;20054;-71
2021/05/12 04:00:26;;;;;;;6.82;2.00;;;17.10;70.20;;;;;;4975528;28;20037;-71
2021/05/12 04:02:52;;;;;;;11.27;2.63;;;17.10;70.10;;;;;;4975211;28;20131;-70
2021/05/12 04:05:18;;;;;;;6.55;2.03;;;17.10;70.10;;;;;;4975220;28;20419;-71
2021/05/12 04:07:44;;;;;;;5.40;2.00;;;17.10;70.70;;;;;;4975253;28;20027;-71
2021/05/12 04:10:11;;;;;;;7.78;2.10;;;17.10;70.10;;;;;;4974978;28;20077;-71
2021/05/12 04:12:37;;;;;;;7.18;2.08;;;17.10;70.40;;;;;;4974967;28;20034;-70
2021/05/12 04:15:05;;;;;;;9.32;2.30;;;17.00;70.40;;;;;;4975069;28;20461;-71
2021/05/12 04:17:31;;;;;;;9.15;2.13;;;17.00;70.80;;;;;;4974841;28;20027;-70
2021/05/12 04:19:56;;;;;;;9.00;1.95;;;17.10;70.70;;;;;;4957487;28;20033;-70
2021/05/12 04:22:22;;;;;;;7.72;2.40;;;17.10;70.60;;;;;;4974705;28;20069;-71
2021/05/12 04:24:48;;;;;;;7.35;2.17;;;17.20;70.40;;;;;;4975132;28;20027;-70
2021/05/12 04:27:14;;;;;;;5.30;2.30;;;17.20;70.30;;;;;;4974849;28;20030;-70
2021/05/12 04:29:40;;;;;;;10.40;2.42;;;17.20;70.30;;;;;;4974798;28;20034;-70
2021/05/12 04:32:06;;;;;;;8.35;2.58;;;17.30;70.70;;;;;;4975017;28;20023;-70
2021/05/12 04:34:33;;;;;;;7.50;2.20;;;17.30;70.40;;;;;;4974749;28;20034;-70
2021/05/12 04:36:58;;;;;;;6.18;2.42;;;17.30;70.40;;;;;;4974783;28;20077;-71
2021/05/12 04:39:24;;;;;;;6.70;2.40;;;17.40;70.80;;;;;;4975640;28;20401;-70
2021/05/12 04:41:50;;;;;;;9.13;2.67;;;17.40;70.70;;;;;;4975293;28;20566;-71
2021/05/12 04:44:16;;;;;;;9.57;2.47;;;17.40;70.60;;;;;;4975560;28;20023;-71
2021/05/12 04:46:44;;;;;;;8.07;2.75;;;17.40;70.50;;;;;;4976072;28;20027;-71
2021/05/12 04:49:11;;;;;;;8.07;2.75;;;17.40;70.70;;;;;;4974944;28;20019;-71
2021/05/12 04:51:36;;;;;;;12.05;3.50;;;17.50;70.60;;;;;;4975045;28;20035;-71
2021/05/12 04:54:04;;;;;;;14.73;3.70;;;17.50;70.50;;;;;;4975056;28;20113;-70
2021/05/12 04:56:29;;;;;;;17.70;3.75;;;17.50;70.60;;;;;;4974659;28;20026;-70
2021/05/12 04:58:55;;;;;;;9.50;2.85;;;17.60;70.50;;;;;;4974659;28;20030;-70
2021/05/12 05:01:21;;;;;;;11.68;3.63;;;17.60;70.60;;;;;;4974001;28;20110;-71
2021/05/12 05:03:48;;;;;;;15.48;3.92;;;17.60;70.80;;;;;;4973721;28;20030;-71
2021/05/12 05:06:14;;;;;;;11.75;3.33;;;17.60;70.60;;;;;;4974390;28;20038;-70
2021/05/12 05:08:39;;;;;;;12.75;3.35;;;17.60;70.90;;;;;;4974246;28;20019;-71
2021/05/12 05:11:05;;;;;;;14.43;3.50;;;17.70;70.90;;;;;;4974375;28;20374;-70
2021/05/12 05:13:31;;;;;;;12.95;3.42;;;17.70;71.00;;;;;;4974391;28;20058;-71
2021/05/12 05:15:57;;;;;;;13.73;3.47;;;17.80;70.80;;;;;;4974388;28;20501;-70
2021/05/12 05:18:23;;;;;;;14.82;3.50;;;18.00;70.50;;;;;;4974236;28;20173;-71
2021/05/12 05:20:49;;;;;;;16.80;3.20;;;18.10;70.30;;;;;;4974647;28;20109;-71
2021/05/12 05:23:15;;;;;;;14.55;3.75;;;18.30;70.10;;;;;;4973866;28;20047;-72
2021/05/12 05:25:40;;;;;;;15.85;3.83;;;18.50;69.60;;;;;;4974015;28;20052;-71
2021/05/12 05:28:06;;;;;;;17.85;3.75;;;18.70;69.90;;;;;;4956399;28;20452;-70
2021/05/12 05:30:32;;;;;;;15.25;3.90;;;18.90;68.90;;;;;;4973799;28;20018;-71
2021/05/12 05:32:59;;;;;;;12.68;3.60;;;19.00;68.70;;;;;;4973796;28;20043;-70
2021/05/12 05:35:25;;;;;;;20.05;3.83;;;19.20;68.10;;;;;;4973442;28;20423;-71
2021/05/12 05:37:50;;;;;;;21.08;3.90;;;19.40;67.80;;;;;;4973784;28;20031;-71
2021/05/12 05:40:16;;;;;;;19.40;4.28;;;19.60;68.10;;;;;;4973568;28;20384;-70
2021/05/12 05:42:42;;;;;;;18.42;3.80;;;19.80;67.00;;;;;;4973493;28;20058;-70
2021/05/12 05:45:08;;;;;;;19.67;3.72;;;19.90;66.60;;;;;;4973846;28;20061;-71
2021/05/12 05:47:34;;;;;;;16.75;3.55;;;20.10;66.30;;;;;;4956098;28;20039;-70
2021/05/12 05:50:00;;;;;;;19.35;3.95;;;20.30;66.10;;;;;;4973645;28;20022;-71
2021/05/12 05:52:26;;;;;;;20.00;5.93;;;20.40;65.70;;;;;;4973536;28;20109;-71
2021/05/12 05:54:52;;;;;;;18.15;4.88;;;20.50;65.50;;;;;;4973613;28;20161;-71
2021/05/12 05:57:18;;;;;;;22.38;3.92;;;20.60;65.30;;;;;;4973672;28;20027;-70
2021/05/12 05:59:44;;;;;;;17.67;3.58;;;20.70;65.10;;;;;;4973626;28;20030;-71
2021/05/12 06:02:10;;;;;;;22.95;4.95;;;20.80;65.00;;;;;;4973803;28;20033;-70
2021/05/12 06:04:35;;;;;;;23.55;4.50;;;21.00;64.90;;;;;;4973624;28;20019;-71
2021/05/12 06:07:01;;;;;;;20.55;4.65;;;21.10;64.40;;;;;;4973644;28;20093;-71
2021/05/12 06:09:27;;;;;;;26.70;5.38;;;21.20;64.20;;;;;;4973626;28;20030;-71
2021/05/12 06:11:53;;;;;;;16.55;4.32;;;21.40;64.10;;;;;;4973309;28;20448;-71
2021/05/12 06:14:20;;;;;;;27.42;5.13;;;21.50;63.80;;;;;;4973284;28;20035;-71
2021/05/12 06:16:52;;;;;;;26.20;5.18;;;21.70;63.50;;;;;;4976939;28;20052;-70
2021/05/12 06:19:18;;;;;;;24.50;5.07;;;21.70;63.30;;;;;;4976593;28;20031;-71
2021/05/12 06:21:43;;;;;;;27.00;5.78;;;21.80;62.80;;;;;;4959118;28;20042;-71
2021/05/12 06:24:10;;;;;;;21.17;4.30;;;21.80;62.60;;;;;;4976718;28;20041;-72
2021/05/12 06:26:39;;;;;;;25.02;5.15;;;22.00;62.60;;;;;;4976928;28;20022;-71
2021/05/12 06:29:05;;;;;;;28.73;6.65;;;22.20;62.40;;;;;;4976835;28;20027;-73
2021/05/12 06:31:31;;;;;;;31.73;5.70;;;22.30;61.90;;;;;;4976348;28;20049;-72
2021/05/12 06:33:59;;;;;;;32.65;5.88;;;22.30;61.80;;;;;;4976499;28;20440;-72
2021/05/12 06:36:24;;;;;;;26.35;5.85;;;22.30;61.50;;;;;;4976949;28;20019;-72
2021/05/12 06:38:51;;;;;;;28.05;4.57;;;22.40;61.50;;;;;;4976330;28;20385;-72
2021/05/12 06:41:17;;;;;;;23.17;4.55;;;22.10;61.60;;;;;;4959279;28;20042;-71
2021/05/12 06:43:42;;;;;;;24.33;5.38;;;21.90;61.70;;;;;;4976572;28;20436;-71
2021/05/12 06:46:08;;;;;;;20.15;4.30;;;21.80;62.10;;;;;;4976046;28;20019;-71
2021/05/12 06:48:34;;;;;;;23.27;4.93;;;21.70;62.40;;;;;;4976184;28;20085;-71
2021/05/12 06:51:00;;;;;;;22.92;5.07;;;21.60;62.30;;;;;;4975821;28;20030;-72
2021/05/12 06:53:28;;;;;;;28.17;4.60;;;21.60;62.30;;;;;;4975897;28;20039;-70
2021/05/12 06:55:54;;;;;;;16.95;4.25;;;21.80;62.20;;;;;;4976042;28;20043;-71
2021/05/12 06:58:20;;;;;;;19.23;4.30;;;22.00;62.60;;;;;;4976181;28;20389;-71
2021/05/12 07:00:48;;;;;;;27.50;5.50;;;22.10;61.60;;;;;;4975739;28;20025;-72
2021/05/12 07:03:14;;;;;;;29.33;5.20;;;22.20;61.40;;;;;;4943443;28;20039;-71
2021/05/12 07:05:39;;;;;;;23.75;5.22;;;22.40;61.10;;;;;;4976314;28;20035;-72
2021/05/12 07:08:05;;;;;;;33.95;5.43;;;22.50;60.70;;;;;;4976131;28;20034;-71
2021/05/12 07:10:31;;;;;;;22.50;4.55;;;22.80;60.30;;;;;;4976017;28;20361;-72
2021/05/12 07:12:57;;;;;;;22.38;4.88;;;23.00;60.50;;;;;;4975988;28;20163;-71
2021/05/12 07:15:23;;;;;;;21.55;4.25;;;23.20;60.30;;;;;;4975990;28;20026;-71
2021/05/12 07:17:49;;;;;;;23.98;4.30;;;23.20;60.00;;;;;;4976131;28;20048;-72
2021/05/12 07:20:15;;;;;;;24.50;5.03;;;23.30;59.60;;;;;;4976240;28;20027;-71
2021/05/12 07:22:41;;;;;;;20.02;4.65;;;23.30;59.50;;;;;;4975726;28;20120;-72
2021/05/12 07:25:07;;;;;;;23.75;4.85;;;23.30;59.40;;;;;;4958470;28;20501;-72
2021/05/12 07:27:33;;;;;;;21.48;4.80;;;23.30;59.40;;;;;;4976079;28;20381;-72
2021/05/12 07:29:59;;;;;;;22.67;4.75;;;23.30;59.30;;;;;;4975953;28;20030;-70
2021/05/12 07:32:25;;;;;;;24.90;5.22;;;23.30;59.20;;;;;;4975863;28;20035;-72
2021/05/12 07:34:52;;;;;;;22.15;4.60;;;23.30;59.10;;;;;;4975874;28;20061;-72
2021/05/12 07:37:19;;;;;;;31.70;5.43;;;23.30;58.70;;;;;;4976040;28;20468;-71
2021/05/12 07:39:44;;;;;;;18.60;4.25;;;23.30;58.80;;;;;;4975486;28;20023;-72
2021/05/12 07:42:12;;;;;;;23.27;4.78;;;23.20;58.80;;;;;;4975462;28;20029;-72
2021/05/12 07:44:38;;;;;;;24.90;4.85;;;23.10;58.60;;;;;;4958265;28;20412;-71
2021/05/12 07:47:03;;;;;;;23.52;4.32;;;23.10;58.60;;;;;;4975386;28;20050;-72
2021/05/12 07:49:29;;;;;;;24.23;5.00;;;23.00;58.10;;;;;;4975366;28;20098;-71
2021/05/12 07:51:56;;;;;;;23.20;3.90;;;22.80;57.80;;;;;;4975482;28;20030;-72
2021/05/12 07:54:21;;;;;;;20.70;4.13;;;22.70;58.10;;;;;;4975204;28;20042;-72
2021/05/12 07:56:47;;;;;;;22.70;4.60;;;22.70;58.10;;;;;;4957527;28;20023;-70
2021/05/12 07:59:15;;;;;;;18.65;3.72;;;22.60;58.20;;;;;;4974812;28;20029;-71
2021/05/12 08:01:44;;;;;;;20.65;4.35;;;22.70;58.10;;;;;;4975065;28;20042;-71
2021/05/12 08:04:09;;;;;;;19.17;4.18;;;22.70;57.60;;;;;;4974972;28;20023;-71
2021/05/12 08:06:35;;;;;;;20.65;3.85;;;22.70;57.50;;;;;;4974917;28;20027;-71
2021/05/12 08:09:02;;;;;;;23.63;5.10;;;22.70;57.60;;;;;;4957401;28;20126;-71
2021/05/12 08:11:28;;;;;;;21.02;4.22;;;22.70;57.80;;;;;;4974497;28;20034;-71
2021/05/12 08:13:54;;;;;;;26.92;4.65;;;22.70;58.30;;;;;;4975474;28;20508;-73
2021/05/12 08:16:20;;;;;;;18.13;3.90;;;22.70;57.50;;;;;;4975093;28;20109;-71
2021/05/12 08:18:46;;;;;;;19.70;3.50;;;22.80;57.40;;;;;;4975762;28;20049;-73
2021/05/12 08:21:12;;;;;;;24.40;5.13;;;22.70;57.30;;;;;;4958273;28;20109;-71
2021/05/12 08:23:38;;;;;;;22.63;4.07;;;22.60;57.20;;;;;;4974654;28;20449;-71
2021/05/12 08:26:04;;;;;;;18.35;4.45;;;22.60;57.40;;;;;;4974527;28;20027;-71
2021/05/12 08:28:29;;;;;;;20.13;4.57;;;22.50;57.30;;;;;;4974453;28;20425;-70
2021/05/12 08:30:56;;;;;;;18.95;4.32;;;22.50;57.20;;;;;;4974212;28;20388;-71
2021/05/12 08:33:23;;;;;;;22.08;4.35;;;22.40;57.20;;;;;;4973834;28;20117;-72
2021/05/12 08:35:49;;;;;;;21.33;4.22;;;22.40;57.20;;;;;;4974078;28;20121;-70
2021/05/12 08:38:19;;;;;;;20.90;3.80;;;22.30;56.80;;;;;;4973319;28;20107;-72
2021/05/12 08:40:46;;;;;;;24.50;5.05;;;22.20;56.90;;;;;;4973665;28;20035;-72
2021/05/12 08:43:13;;;;;;;17.35;3.83;;;22.10;57.00;;;;;;4974026;28;20027;-73
2021/05/12 08:45:42;;;;;;;21.27;4.70;;;22.10;57.10;;;;;;4974248;28;20019;-70
2021/05/12 08:48:11;;;;;;;17.27;4.00;;;22.10;56.70;;;;;;4974037;28;20380;-70
2021/05/12 08:50:37;;;;;;;15.38;3.92;;;22.20;56.70;;;;;;4973749;28;20057;-72
2021/05/12 08:53:03;;;;;;;24.40;4.07;;;22.10;56.20;;;;;;4973691;28;20034;-71
2021/05/12 08:55:31;;;;;;;28.00;4.60;;;22.10;56.10;;;;;;4973380;28;20524;-71
2021/05/12 08:57:56;;;;;;;19.70;4.75;;;22.10;56.30;;;;;;4973723;28;20018;-71
2021/05/12 09:00:22;;;;;;;22.70;4.65;;;22.10;55.90;;;;;;4974134;28;20037;-71
2021/05/12 09:02:48;;;;;;;18.27;4.13;;;22.20;56.20;;;;;;4973812;28;20051;-70
2021/05/12 09:05:15;;;;;;;18.75;3.53;;;22.20;56.10;;;;;;4974023;28;20106;-72
2021/05/12 09:07:40;;;;;;;23.15;3.78;;;22.10;55.60;;;;;;4973805;28;20023;-72
2021/05/12 09:10:07;;;;;;;19.42;4.63;;;22.10;55.60;;;;;;4974034;28;20377;-71
2021/05/12 09:12:49;;;;;;;24.10;3.72;;;22.10;55.90;;;;;;4974092;28;20041;-72
2021/05/12 09:15:18;;;;;;;19.98;4.30;;;22.10;55.90;;;;;;4973793;28;20033;-72
2021/05/12 09:17:46;;;;;;;19.38;4.40;;;22.10;55.40;;;;;;4973420;28;20021;-71
2021/05/12 09:20:20;;;;;;;15.15;4.07;;;22.00;55.00;;;;;;4973144;28;20046;-73
2021/05/12 09:23:05;;;;;;;18.85;4.53;;;22.00;55.00;;;;;;4973548;28;20050;-72
2021/05/12 09:25:34;;;;;;;20.13;4.20;;;22.10;55.00;;;;;;4973412;28;20029;-72
2021/05/12 09:28:13;;;;;;;24.15;3.97;;;22.10;55.40;;;;;;4973651;28;20080;-71
2021/05/12 09:30:42;;;;;;;21.52;4.68;;;22.10;55.10;;;;;;4973632;28;20050;-71
2021/05/12 09:33:09;;;;;;;22.13;3.45;;;22.10;54.70;;;;;;4973239;28;20035;-72
2021/05/12 09:35:42;;;;;;;21.27;4.38;;;22.10;55.10;;;;;;4973649;28;20489;-71
2021/05/12 09:38:38;;;;;;;19.45;4.43;;;22.10;55.10;;;;;;4973887;28;20018;-71
2021/05/12 09:41:13;;;;;;;13.88;3.40;;;22.10;54.60;;;;;;4960711;28;20039;-71
2021/05/12 09:43:47;;;;;;;18.05;3.50;;;22.00;54.60;;;;;;4973776;28;20030;-72
2021/05/12 09:46:21;;;;;;;24.02;4.35;;;22.10;54.40;;;;;;4973288;28;20057;-72
2021/05/12 09:48:59;;;;;;;17.13;3.80;;;22.10;54.00;;;;;;4974665;28;20105;-71
2021/05/12 09:51:26;;;;;;;36.58;6.25;;;22.20;54.20;;;;;;4977393;28;20485;-72
2021/05/12 09:54:19;;;;;;;19.63;5.45;;;22.30;53.40;;;;;;4977244;28;20110;-72
2021/05/12 09:56:54;;;;;;;20.83;4.07;;;22.40;54.60;;;;;;4959904;28;20023;-72
2021/05/12 09:59:30;;;;;;;18.20;3.80;;;22.40;53.60;;;;;;4977151;28;20089;-71
2021/05/12 10:01:58;;;;;;;15.43;3.75;;;22.40;53.30;;;;;;4977034;28;20031;-71
2021/05/12 10:04:36;;;;;;;11.95;3.05;;;22.40;52.60;;;;;;4977228;28;20033;-71
2021/05/12 10:07:19;;;;;;;19.35;4.35;;;22.40;53.00;;;;;;4976696;28;20062;-71
2021/05/12 10:09:47;;;;;;;19.25;4.10;;;22.40;53.20;;;;;;4977175;28;20150;-73
2021/05/12 10:12:16;;;;;;;19.13;3.50;;;22.40;53.40;;;;;;4976693;28;20030;-72
2021/05/12 10:14:45;;;;;;;18.27;3.70;;;22.50;53.20;;;;;;4976481;28;20359;-71
2021/05/12 10:17:13;;;;;;;18.45;4.03;;;22.40;52.90;;;;;;4976879;28;20019;-71
2021/05/12 10:19:39;;;;;;;21.10;4.45;;;22.40;53.00;;;;;;4977154;28;20042;-72
2021/05/12 10:22:06;;;;;;;15.65;2.90;;;22.50;53.00;;;;;;4976787;28;20055;-71
2021/05/12 10:24:35;;;;;;;18.05;3.95;;;22.40;52.30;;;;;;4977074;28;20038;-72
2021/05/12 10:27:26;;;;;;;13.63;3.70;;;22.50;53.40;;;;;;4976983;28;20046;-72
2021/05/12 10:29:54;;;;;;;13.68;3.78;;;22.50;52.90;;;;;;4969027;28;20062;-72
2021/05/12 10:32:36;;;;;;;15.05;4.05;;;22.50;52.80;;;;;;4959734;28;20389;-72
2021/05/12 10:35:05;;;;;;;17.42;3.97;;;22.50;53.00;;;;;;4976883;28;20518;-71
2021/05/12 10:37:35;;;;;;;19.23;3.70;;;22.50;53.00;;;;;;4976704;28;20026;-73
2021/05/12 10:40:05;;;;;;;13.85;3.60;;;22.50;51.80;;;;;;4976607;28;20502;-71
2021/05/12 10:45:20;;;;;;;19.30;3.83;;;22.70;53.30;;;;;;4976783;28;20026;-72
2021/05/12 10:47:46;;;;;;;21.85;4.93;;;22.70;52.80;;;;;;4959797;28;20057;-72
2021/05/12 10:50:12;;;;;;;16.50;3.90;;;22.80;52.60;;;;;;4976697;28;20480;-72
2021/05/12 10:52:38;;;;;;;11.80;2.90;;;22.90;52.20;;;;;;4976655;28;20484;-71
2021/05/12 10:55:04;;;;;;;20.05;4.03;;;23.00;51.80;;;;;;4976338;28;20038;-71
2021/05/12 10:57:48;;;;;;;18.10;3.08;;;23.10;51.40;;;;;;4976343;28;20481;-72
2021/05/12 11:00:17;;;;;;;16.63;3.50;;;23.10;50.50;;;;;;4975735;28;20349;-72
2021/05/12 11:03:00;;;;;;;13.75;3.15;;;23.10;51.00;;;;;;4976195;28;20480;-71
2021/05/12 11:05:52;;;;;;;16.58;3.28;;;23.00;50.70;;;;;;4976634;28;20034;-72
2021/05/12 11:08:18;;;;;;;17.52;3.20;;;23.10;50.60;;;;;;4976153;28;20614;-72
2021/05/12 11:11:04;;;;;;;19.55;3.80;;;23.20;51.00;;;;;;4976085;28;20030;-71
2021/05/12 11:13:32;;;;;;;20.60;3.67;;;23.30;50.30;;;;;;4976028;28;20026;-70
2021/05/12 11:16:03;;;;;;;15.63;3.47;;;23.40;50.40;;;;;;4976258;28;20480;-74
2021/05/12 11:18:38;;;;;;;16.65;4.00;;;23.50;50.00;;;;;;4976212;28;20087;-70
2021/05/12 11:21:27;;;;;;;16.85;3.58;;;23.60;49.60;;;;;;4975872;28;20484;-71
2021/05/12 11:24:06;;;;;;;15.93;3.50;;;23.60;49.70;;;;;;4975615;28;20122;-70
2021/05/12 11:32:03;;;;;;;16.30;3.10;;;23.60;49.10;;;;;;4975704;28;20041;-72
2021/05/12 11:34:30;;;;;;;11.93;3.58;;;23.60;48.70;;;;;;4975843;28;20117;-71
2021/05/12 11:37:16;;;;;;;14.75;3.45;;;23.70;49.30;;;;;;4975637;28;20106;-72
2021/05/12 11:39:44;;;;;;;14.18;4.00;;;23.70;48.70;;;;;;4975850;28;20106;-72
2021/05/12 11:42:26;;;;;;;13.07;2.90;;;23.80;48.90;;;;;;4975627;28;20027;-72
2021/05/12 11:45:19;;;;;;;22.35;3.53;;;24.00;48.90;;;;;;4976250;28;20026;-71
2021/05/12 11:47:58;;;;;;;13.27;3.47;;;24.00;47.90;;;;;;4975852;28;20114;-71
2021/05/12 11:50:35;;;;;;;16.83;3.88;;;24.10;48.10;;;;;;4975453;28;20030;-71
2021/05/12 11:53:02;;;;;;;14.40;3.40;;;24.10;47.80;;;;;;4975020;28;20038;-71
2021/05/12 11:55:33;;;;;;;16.48;3.80;;;24.00;48.00;;;;;;4975412;28;20039;-71
2021/05/12 11:58:00;;;;;;;15.88;3.03;;;24.00;48.00;;;;;;4975083;28;20098;-71
2021/05/12 12:00:36;;;;;;;20.75;3.67;;;24.00;47.60;;;;;;4974945;28;20507;-71
2021/05/12 12:03:06;;;;;;;16.27;3.80;;;23.90;47.50;;;;;;4974720;28;20061;-71
2021/05/12 12:05:41;;;;;;;14.00;4.18;;;23.90;46.80;;;;;;4974827;28;20030;-71
2021/05/12 12:08:14;;;;;;;18.88;3.63;;;23.80;47.00;;;;;;4975461;28;20373;-72
2021/05/12 12:10:41;;;;;;;24.02;4.00;;;23.90;47.70;;;;;;4975012;28;20030;-70
2021/05/12 12:13:13;;;;;;;14.20;3.33;;;23.90;48.20;;;;;;4974091;28;20023;-72
2021/05/12 12:15:40;;;;;;;16.63;3.47;;;23.80;48.60;;;;;;4975412;28;20338;-72
2021/05/12 12:18:06;;;;;;;16.67;3.55;;;23.80;49.20;;;;;;4957504;28;20023;-72
2021/05/12 12:20:33;;;;;;;25.15;4.07;;;23.80;49.00;;;;;;4974815;28;20023;-72
2021/05/12 12:23:01;;;;;;;14.68;3.40;;;24.00;48.70;;;;;;4974879;28;20057;-73
2021/05/12 12:25:32;;;;;;;16.83;3.67;;;24.10;48.50;;;;;;4974811;28;20077;-72
2021/05/12 12:27:59;;;;;;;16.00;3.88;;;24.10;48.50;;;;;;4974551;28;20026;-72
2021/05/12 12:30:25;;;;;;;14.80;4.05;;;24.20;48.60;;;;;;4957372;28;20042;-72
2021/05/12 12:32:51;;;;;;;17.15;3.70;;;24.10;47.80;;;;;;4974463;28;20388;-72
2021/05/12 12:35:17;;;;;;;17.65;3.58;;;24.10;48.20;;;;;;4974536;28;20364;-73
2021/05/12 12:37:43;;;;;;;13.63;3.05;;;24.10;48.10;;;;;;4974648;28;20415;-72
2021/05/12 12:40:11;;;;;;;17.83;3.30;;;24.00;47.50;;;;;;4974655;28;20105;-71
2021/05/12 12:42:39;;;;;;;17.13;3.85;;;24.00;47.80;;;;;;4974284;28;20031;-72
2021/05/12 12:45:23;;;;;;;15.07;3.42;;;24.10;47.90;;;;;;4974641;28;20039;-72
2021/05/12 12:47:52;;;;;;;;;;;24.20;47.90;;;;;;4975256;28;20547;-72
2021/05/12 12:50:19;;;;;;;15.65;3.90;;;24.10;47.70;;;;;;4974482;28;19906;-71
2021/05/12 12:52:45;;;;;;;16.00;3.65;;;24.00;48.40;;;;;;4974259;28;20081;-72
2021/05/12 12:55:17;;;;;;;19.23;3.97;;;24.10;48.40;;;;;;4974379;28;20035;-72